Time;durP1;ratioP1;P1;durP2;ratioP2;P2;SDS_P1;SDS_P2;PMS_P1;PMS_P2;Temp;Humidity;BMP_temperature;BMP_pressure;BME280_temperature;BME280_humidity;BME280_pressure;Samples;Min_cycle;Max_cycle;Signal;HPM_P1;HPM_P2
2022/06/29 00:00:35;;;;;;;;;;;17.20;99.90;;;;;;5083617;27;38245;-61
2022/06/29 00:03:02;;;;;;;;;;;17.20;99.90;;;;;;5084508;27;37284;-61
2022/06/29 00:05:30;;;;;;;;;;;17.20;99.90;;;;;;5085294;27;34624;-61
2022/06/29 00:07:57;;;;;;;;;;;17.10;99.90;;;;;;5084698;27;38464;-60
2022/06/29 00:10:24;;;;;;;;;;;17.10;99.90;;;;;;5084231;27;37305;-60
2022/06/29 00:12:52;;;;;;;;;;;17.10;99.90;;;;;;5084998;27;36506;-61
2022/06/29 00:15:19;;;;;;;;;;;17.00;99.90;;;;;;5084767;27;37846;-61
2022/06/29 00:17:48;;;;;;;;;;;17.00;99.90;;;;;;5084089;28;38078;-61
2022/06/29 00:20:15;;;;;;;;;;;17.10;99.90;;;;;;5084471;27;38318;-61
2022/06/29 00:22:43;;;;;;;;;;;17.00;99.90;;;;;;5085515;27;36538;-60
2022/06/29 00:25:10;;;;;;;;;;;17.00;99.90;;;;;;5083933;27;37521;-61
2022/06/29 00:27:38;;;;;;;;;;;17.00;99.90;;;;;;5084526;27;37147;-61
2022/06/29 00:30:05;;;;;;;;;;;17.00;99.90;;;;;;5084690;27;37623;-60
2022/06/29 00:32:32;;;;;;;;;;;17.00;99.90;;;;;;5084833;27;36949;-61
2022/06/29 00:35:01;;;;;;;;;;;17.00;99.90;;;;;;5084320;27;36974;-60
2022/06/29 00:37:28;;;;;;;;;;;17.00;99.90;;;;;;5081364;27;38562;-61
2022/06/29 00:39:55;;;;;;;;;;;17.00;99.90;;;;;;5084482;27;38259;-60
2022/06/29 00:42:23;;;;;;;;;;;17.00;99.90;;;;;;5082871;27;36251;-61
2022/06/29 00:44:50;;;;;;;;;;;17.10;99.90;;;;;;5084314;27;40273;-61
2022/06/29 00:47:17;;;;;;;;;;;17.00;99.90;;;;;;5082395;27;37936;-60
2022/06/29 00:49:44;;;;;;;;;;;17.00;99.90;;;;;;5082198;27;36306;-60
2022/06/29 00:52:13;;;;;;;;;;;17.00;99.90;;;;;;5083497;27;37771;-60
2022/06/29 00:54:41;;;;;;;;;;;17.00;99.90;;;;;;5081504;28;38075;-60
2022/06/29 00:57:09;;;;;;;;;;;16.90;99.90;;;;;;5079766;27;39562;-60
2022/06/29 00:59:41;;;;;;;;;;;16.90;99.90;;;;;;5083342;27;36306;-60
2022/06/29 01:02:08;;;;;;;;;;;16.90;99.90;;;;;;5084596;27;36430;-60
2022/06/29 01:04:36;;;;;;;;;;;16.90;99.90;;;;;;5084040;27;38700;-61
2022/06/29 01:07:03;;;;;;;;;;;16.90;99.90;;;;;;5086246;27;39702;-60
2022/06/29 01:09:31;;;;;;;;;;;16.90;99.90;;;;;;5087303;27;37583;-60
2022/06/29 01:11:59;;;;;;;;;;;16.90;99.90;;;;;;5087319;27;35060;-61
2022/06/29 01:14:26;;;;;;;;;;;16.90;99.90;;;;;;5088482;27;39389;-60
2022/06/29 01:16:54;;;;;;;;;;;16.90;99.90;;;;;;5087142;27;38475;-60
2022/06/29 01:19:21;;;;;;;;;;;16.90;99.90;;;;;;5087266;27;37267;-60
2022/06/29 01:21:50;;;;;;;;;;;16.90;99.90;;;;;;5086891;27;36728;-61
2022/06/29 01:24:18;;;;;;;;;;;16.90;99.90;;;;;;5087065;27;37798;-60
2022/06/29 01:26:45;;;;;;;;;;;16.90;99.90;;;;;;5086986;27;38724;-60
2022/06/29 01:29:12;;;;;;;;;;;16.90;99.90;;;;;;5087361;27;37740;-60
2022/06/29 01:31:39;;;;;;;;;;;16.90;99.90;;;;;;5086033;27;35938;-59
2022/06/29 01:34:07;;;;;;;;;;;16.90;99.90;;;;;;5087037;27;37944;-61
2022/06/29 01:36:34;;;;;;;;;;;16.90;99.90;;;;;;5086076;27;38779;-60
2022/06/29 01:39:01;;;;;;;;;;;16.80;99.90;;;;;;5085637;27;37983;-60
2022/06/29 01:41:29;;;;;;;;;;;16.80;99.90;;;;;;5086686;27;35616;-60
2022/06/29 01:43:56;;;;;;;;;;;16.80;99.90;;;;;;5086675;27;36463;-60
2022/06/29 01:46:23;;;;;;;;;;;16.80;99.90;;;;;;5087634;27;38235;-60
2022/06/29 01:48:50;;;;;;;;;;;16.70;99.90;;;;;;5084817;27;36334;-60
2022/06/29 01:51:18;;;;;;;;;;;16.70;99.90;;;;;;5086038;27;38509;-60
2022/06/29 01:53:45;;;;;;;;;;;16.70;99.90;;;;;;5086194;27;37819;-60
2022/06/29 01:56:12;;;;;;;;;;;16.70;99.90;;;;;;5086192;27;38119;-60
2022/06/29 01:58:41;;;;;;;;;;;16.70;99.90;;;;;;5087013;27;38161;-60
2022/06/29 02:01:08;;;;;;;;;;;16.70;99.90;;;;;;5088452;27;37884;-60
2022/06/29 02:03:35;;;;;;;;;;;16.80;99.90;;;;;;5089661;27;37693;-60
2022/06/29 02:06:02;;;;;;;;;;;16.80;99.90;;;;;;5088690;27;39733;-60
2022/06/29 02:08:29;;;;;;;;;;;16.80;99.90;;;;;;5089815;27;39410;-60
2022/06/29 02:10:56;;;;;;;;;;;16.80;99.90;;;;;;5088992;27;36603;-60
2022/06/29 02:13:24;;;;;;;;;;;16.90;99.90;;;;;;5088956;27;37883;-60
2022/06/29 02:15:52;;;;;;;;;;;16.80;99.90;;;;;;5089799;27;37796;-61
2022/06/29 02:18:20;;;;;;;;;;;16.90;99.90;;;;;;5090612;28;36892;-61
2022/06/29 02:20:47;;;;;;;;;;;16.90;99.90;;;;;;5088945;27;36732;-60
2022/06/29 02:23:14;;;;;;;;;;;16.90;99.90;;;;;;5088949;27;39114;-60
2022/06/29 02:25:41;;;;;;;;;;;16.90;99.90;;;;;;5089389;27;38339;-60
2022/06/29 02:28:08;;;;;;;;;;;16.90;99.90;;;;;;5089301;27;38684;-60
2022/06/29 02:36:06;;;;;;;;;;;16.90;99.90;;;;;;5088827;27;39808;-60
2022/06/29 02:38:33;;;;;;;;;;;16.80;99.90;;;;;;5089382;27;38888;-60
2022/06/29 02:41:00;;;;;;;;;;;16.80;99.90;;;;;;5088371;27;35925;-60
2022/06/29 02:43:27;;;;;;;;;;;16.80;99.90;;;;;;5087741;27;37905;-60
2022/06/29 02:45:54;;;;;;;;;;;16.80;99.90;;;;;;5089118;27;37855;-60
2022/06/29 02:48:22;;;;;;;;;;;16.80;99.90;;;;;;5089800;27;38186;-60
2022/06/29 02:50:50;;;;;;;;;;;16.80;99.90;;;;;;5088651;27;37469;-60
2022/06/29 02:53:17;;;;;;;;;;;16.80;99.90;;;;;;5089589;27;36537;-60
2022/06/29 02:55:44;;;;;;;;;;;16.80;99.90;;;;;;5088905;28;38541;-60
2022/06/29 02:58:11;;;;;;;;;;;16.70;99.90;;;;;;5089362;27;37409;-61
2022/06/29 03:00:38;;;;;;;;;;;16.70;99.90;;;;;;5088209;27;36225;-60
2022/06/29 03:03:05;;;;;;;;;;;16.70;99.90;;;;;;5089164;27;37806;-61
2022/06/29 03:05:33;;;;;;;;;;;16.70;99.90;;;;;;5088230;27;39004;-60
2022/06/29 03:08:00;;;;;;;;;;;16.70;99.90;;;;;;5088559;27;38051;-60
2022/06/29 03:10:28;;;;;;;;;;;16.60;99.90;;;;;;5088230;27;36643;-60
2022/06/29 03:12:55;;;;;;;;;;;16.60;99.90;;;;;;5088824;27;37135;-60
2022/06/29 03:15:25;;;;;;;;;;;16.60;99.90;;;;;;5088274;27;39154;-60
2022/06/29 03:17:52;;;;;;;;;;;16.60;99.90;;;;;;5088979;27;37465;-60
2022/06/29 03:20:19;;;;;;;;;;;16.60;99.90;;;;;;5088997;27;35984;-60
2022/06/29 03:22:48;;;;;;;;;;;16.60;99.90;;;;;;5088528;27;38847;-61
2022/06/29 03:25:15;;;;;;;;;;;16.50;99.90;;;;;;5089732;27;37144;-60
2022/06/29 03:27:42;;;;;;;;;;;16.60;99.90;;;;;;5088602;27;38335;-60
2022/06/29 03:30:10;;;;;;;;;;;16.60;99.90;;;;;;5090023;28;35086;-60
2022/06/29 03:32:37;;;;;;;;;;;16.60;99.90;;;;;;5089641;27;37672;-60
2022/06/29 03:35:04;;;;;;;;;;;16.60;99.90;;;;;;5089366;27;38659;-60
2022/06/29 03:37:31;;;;;;;;;;;16.60;99.90;;;;;;5089725;27;36983;-60
2022/06/29 03:40:00;;;;;;;;;;;16.60;99.90;;;;;;5090035;27;36721;-60
2022/06/29 03:42:27;;;;;;;;;;;16.60;99.90;;;;;;5089012;27;38686;-60
2022/06/29 03:44:55;;;;;;;;;;;16.60;99.90;;;;;;5088503;27;37152;-60
2022/06/29 03:47:22;;;;;;;;;;;16.60;99.90;;;;;;5089148;27;36369;-60
2022/06/29 03:49:49;;;;;;;;;;;16.60;99.90;;;;;;5089018;27;38741;-60
2022/06/29 03:52:16;;;;;;;;;;;16.60;99.90;;;;;;5089804;27;36901;-60
2022/06/29 03:54:43;;;;;;;;;;;16.60;99.90;;;;;;5087247;27;39193;-60
2022/06/29 03:57:12;;;;;;;;;;;16.60;99.90;;;;;;5087922;27;36324;-60
2022/06/29 03:59:39;;;;;;;;;;;16.60;99.90;;;;;;5088116;27;35233;-60
2022/06/29 04:02:06;;;;;;;;;;;16.70;99.90;;;;;;5088092;27;39843;-60
2022/06/29 04:04:33;;;;;;;;;;;16.70;99.90;;;;;;5089011;27;38477;-60
2022/06/29 04:07:00;;;;;;;;;;;16.80;99.90;;;;;;5086495;27;37694;-60
2022/06/29 04:09:27;;;;;;;;;;;16.80;99.90;;;;;;5086905;27;36304;-60
2022/06/29 04:11:54;;;;;;;;;;;16.80;99.90;;;;;;5087206;27;39021;-60
2022/06/29 04:14:24;;;;;;;;;;;16.80;99.90;;;;;;5088762;27;38411;-60
2022/06/29 04:16:51;;;;;;;;;;;16.80;99.90;;;;;;5086497;27;38845;-60
2022/06/29 04:19:18;;;;;;;;;;;16.80;99.90;;;;;;5087798;27;37216;-60
2022/06/29 04:21:46;;;;;;;;;;;16.80;99.90;;;;;;5086252;27;38423;-60
2022/06/29 04:24:13;;;;;;;;;;;16.80;99.90;;;;;;5084838;27;38490;-60
2022/06/29 04:26:40;;;;;;;;;;;16.80;99.90;;;;;;5087922;28;37310;-60
2022/06/29 04:29:07;;;;;;;;;;;16.80;99.90;;;;;;5085952;27;37380;-60
2022/06/29 04:31:36;;;;;;;;;;;16.90;99.90;;;;;;5087162;27;38022;-60
2022/06/29 04:34:03;;;;;;;;;;;16.90;99.90;;;;;;5086272;27;39805;-60
2022/06/29 04:36:31;;;;;;;;;;;16.90;99.90;;;;;;5087266;27;36184;-60
2022/06/29 04:38:58;;;;;;;;;;;16.90;99.90;;;;;;5087569;27;36931;-60
2022/06/29 04:41:25;;;;;;;;;;;17.00;99.90;;;;;;5087527;27;37693;-61
2022/06/29 04:43:52;;;;;;;;;;;17.00;99.90;;;;;;5088050;28;38388;-60
2022/06/29 04:46:22;;;;;;;;;;;17.10;99.90;;;;;;5087757;28;37649;-60
2022/06/29 04:48:52;;;;;;;;;;;17.10;99.90;;;;;;5086032;27;37323;-60
2022/06/29 04:51:19;;;;;;;;;;;17.20;99.90;;;;;;5087569;27;36479;-60
2022/06/29 04:53:46;;;;;;;;;;;17.20;99.90;;;;;;5085029;27;39128;-60
2022/06/29 04:56:14;;;;;;;;;;;17.20;99.90;;;;;;5087670;27;37846;-60
2022/06/29 04:58:41;;;;;;;;;;;17.20;99.90;;;;;;5086164;27;35203;-60
2022/06/29 05:01:08;;;;;;;;;;;17.20;99.90;;;;;;5087573;27;38562;-60
2022/06/29 05:03:35;;;;;;;;;;;17.20;99.90;;;;;;5086442;27;38221;-60
2022/06/29 05:06:04;;;;;;;;;;;17.30;99.90;;;;;;5085708;27;36918;-60
2022/06/29 05:08:31;;;;;;;;;;;17.30;99.90;;;;;;5087269;27;35426;-60
2022/06/29 05:10:58;;;;;;;;;;;17.30;99.90;;;;;;5086454;27;38977;-60
2022/06/29 05:13:25;;;;;;;;;;;17.40;99.90;;;;;;5088135;27;37062;-60
2022/06/29 05:15:52;;;;;;;;;;;17.40;99.90;;;;;;5086381;27;39015;-60
2022/06/29 05:18:19;;;;;;;;;;;17.40;99.90;;;;;;5087994;27;34970;-60
2022/06/29 05:20:46;;;;;;;;;;;17.40;99.90;;;;;;5085511;27;37422;-60
2022/06/29 05:23:18;;;;;;;;;;;17.50;99.90;;;;;;5087197;27;37050;-60
2022/06/29 05:25:45;;;;;;;;;;;17.50;99.90;;;;;;5085968;27;36225;-60
2022/06/29 05:28:13;;;;;;;;;;;17.40;99.90;;;;;;5085851;27;36937;-60
2022/06/29 05:30:40;;;;;;;;;;;17.50;99.90;;;;;;5086197;27;39088;-60
2022/06/29 05:33:07;;;;;;;;;;;17.50;99.90;;;;;;5085951;27;38790;-60
2022/06/29 05:35:34;;;;;;;;;;;17.60;99.90;;;;;;5084106;27;37726;-60
2022/06/29 05:38:01;;;;;;;;;;;17.60;99.90;;;;;;5086308;27;36315;-59
2022/06/29 05:40:30;;;;;;;;;;;17.60;99.90;;;;;;5085753;27;37543;-60
2022/06/29 05:42:58;;;;;;;;;;;17.80;99.90;;;;;;5086487;27;38338;-60
2022/06/29 05:45:25;;;;;;;;;;;17.90;99.90;;;;;;5086874;27;37656;-60
2022/06/29 05:47:52;;;;;;;;;;;18.10;99.90;;;;;;5085977;27;37953;-60
2022/06/29 05:50:20;;;;;;;;;;;18.30;99.90;;;;;;5086389;27;38976;-60
2022/06/29 05:52:48;;;;;;;;;;;18.60;99.90;;;;;;5086916;27;39590;-60
2022/06/29 05:55:15;;;;;;;;;;;18.80;99.90;;;;;;5085251;28;37244;-60
2022/06/29 05:57:43;;;;;;;;;;;19.00;99.90;;;;;;5083443;27;37541;-60
2022/06/29 06:00:11;;;;;;;;;;;19.10;99.90;;;;;;5083785;27;39584;-60
2022/06/29 06:02:38;;;;;;;;;;;19.20;99.90;;;;;;5084370;28;39003;-60
2022/06/29 06:05:06;;;;;;;;;;;19.30;99.90;;;;;;5085898;27;36289;-60
2022/06/29 06:07:33;;;;;;;;;;;19.30;99.90;;;;;;5085537;27;36428;-60
2022/06/29 06:10:00;;;;;;;;;;;19.40;99.90;;;;;;5085645;27;37557;-60
2022/06/29 06:12:28;;;;;;;;;;;19.50;99.80;;;;;;5086544;27;40561;-60
2022/06/29 06:14:58;;;;;;;;;;;19.60;99.90;;;;;;5085653;27;37558;-60
2022/06/29 06:17:26;;;;;;;;;;;19.70;99.70;;;;;;5086090;27;37457;-60
2022/06/29 06:19:53;;;;;;;;;;;19.80;99.10;;;;;;5085328;27;36558;-60
2022/06/29 06:22:20;;;;;;;;;;;20.00;99.20;;;;;;5083209;27;39757;-60
2022/06/29 06:24:48;;;;;;;;;;;20.20;98.70;;;;;;5084528;27;37316;-61
2022/06/29 06:27:15;;;;;;;;;;;20.30;98.20;;;;;;5085260;27;37477;-61
2022/06/29 06:29:42;;;;;;;;;;;20.40;98.40;;;;;;5085034;28;38447;-60
2022/06/29 06:32:10;;;;;;;;;;;20.50;98.10;;;;;;5085137;27;39313;-61
2022/06/29 06:34:40;;;;;;;;;;;20.60;98.10;;;;;;5086596;27;37029;-61
2022/06/29 06:37:07;;;;;;;;;;;20.70;96.60;;;;;;5086176;27;36195;-61
2022/06/29 06:39:34;;;;;;;;;;;20.80;96.70;;;;;;5086535;27;37882;-61
2022/06/29 06:42:00;;;;;;;;;;;20.90;96.20;;;;;;5082463;27;38195;-61
2022/06/29 06:44:27;;;;;;;;;;;20.90;95.90;;;;;;5079297;28;37772;-60
2022/06/29 06:46:54;;;;;;;;;;;21.00;96.10;;;;;;5082691;27;36422;-61
2022/06/29 06:49:24;;;;;;;;;;;21.10;95.50;;;;;;5083429;27;39271;-61
2022/06/29 06:51:51;;;;;;;;;;;21.20;95.90;;;;;;5081790;27;39585;-61
2022/06/29 06:54:18;;;;;;;;;;;21.20;95.50;;;;;;5082355;27;38167;-61
2022/06/29 06:56:45;;;;;;;;;;;21.40;96.30;;;;;;5083971;27;36584;-61
2022/06/29 06:59:13;;;;;;;;;;;21.50;95.90;;;;;;5083519;27;38853;-61
2022/06/29 07:01:40;;;;;;;;;;;21.50;95.50;;;;;;5083272;27;37970;-61
2022/06/29 07:04:07;;;;;;;;;;;21.60;96.10;;;;;;5084488;27;39015;-61
2022/06/29 07:06:35;;;;;;;;;;;21.70;96.10;;;;;;5082784;27;35349;-61
2022/06/29 07:09:03;;;;;;;;;;;21.90;95.60;;;;;;5083315;27;36569;-61
2022/06/29 07:11:31;;;;;;;;;;;22.00;96.30;;;;;;5082943;27;36967;-61
2022/06/29 07:13:58;;;;;;;;;;;22.10;94.10;;;;;;5083352;27;38073;-61
2022/06/29 07:16:25;;;;;;;;;;;22.20;94.30;;;;;;5081575;27;35676;-61
2022/06/29 07:18:53;;;;;;;;;;;22.20;93.80;;;;;;5077980;27;41269;-61
2022/06/29 07:21:20;;;;;;;;;;;22.20;92.70;;;;;;5079478;27;38549;-61
2022/06/29 07:23:48;;;;;;;;;;;22.30;91.80;;;;;;5083232;27;38318;-61
2022/06/29 07:26:15;;;;;;;;;;;22.30;92.20;;;;;;5079359;27;35147;-61
2022/06/29 07:28:44;;;;;;;;;;;22.40;91.80;;;;;;5080660;27;37911;-61
2022/06/29 07:31:12;;;;;;;;;;;22.40;90.20;;;;;;5082379;27;38256;-61
2022/06/29 07:33:39;;;;;;;;;;;22.50;87.00;;;;;;5082312;27;39178;-61
2022/06/29 07:36:06;;;;;;;;;;;22.60;90.60;;;;;;5083500;27;35226;-61
2022/06/29 07:38:34;;;;;;;;;;;22.60;91.10;;;;;;5082705;27;37451;-61
2022/06/29 07:41:02;;;;;;;;;;;22.70;87.00;;;;;;5083597;27;38105;-61
2022/06/29 07:43:29;;;;;;;;;;;22.70;90.30;;;;;;5081335;27;38322;-61
2022/06/29 07:45:57;;;;;;;;;;;22.80;91.50;;;;;;5083429;27;36060;-61
2022/06/29 07:48:24;;;;;;;;;;;22.90;92.00;;;;;;5083465;27;38798;-61
2022/06/29 07:50:52;;;;;;;;;;;23.00;91.10;;;;;;5083518;28;38135;-61
2022/06/29 07:53:19;;;;;;;;;;;23.00;91.70;;;;;;5084070;27;37115;-61
2022/06/29 07:55:46;;;;;;;;;;;23.10;90.60;;;;;;5083762;27;37045;-61
2022/06/29 07:58:15;;;;;;;;;;;23.20;91.10;;;;;;5080868;27;36573;-61
2022/06/29 08:00:43;;;;;;;;;;;23.20;91.50;;;;;;5083693;27;38104;-62
2022/06/29 08:03:10;;;;;;;;;;;23.30;90.50;;;;;;5085355;27;38343;-61
2022/06/29 08:05:37;;;;;;;;;;;23.30;88.40;;;;;;5085338;27;36605;-62
2022/06/29 08:08:04;;;;;;;;;;;23.40;90.20;;;;;;5084695;27;36483;-61
2022/06/29 08:10:32;;;;;;;;;;;23.50;91.40;;;;;;5084043;27;38712;-61
2022/06/29 08:12:59;;;;;;;;;;;23.60;90.80;;;;;;5084619;27;37552;-61
2022/06/29 08:15:27;;;;;;;;;;;23.70;88.80;;;;;;5084313;27;36226;-62
2022/06/29 08:17:54;;;;;;;;;;;23.70;87.50;;;;;;5083795;27;38342;-62
2022/06/29 08:20:22;;;;;;;;;;;23.70;88.80;;;;;;5084189;27;38928;-61
2022/06/29 08:22:49;;;;;;;;;;;23.80;83.90;;;;;;5084166;27;39002;-62
2022/06/29 08:25:16;;;;;;;;;;;23.90;87.10;;;;;;5084471;27;36127;-61
2022/06/29 08:27:43;;;;;;;;;;;24.00;86.90;;;;;;5083166;27;39249;-62
2022/06/29 08:30:10;;;;;;;;;;;24.00;88.20;;;;;;5084220;27;38261;-61
2022/06/29 08:32:41;;;;;;;;;;;24.10;88.30;;;;;;5084634;27;37785;-62
2022/06/29 08:35:09;;;;;;;;;;;24.00;81.90;;;;;;5084290;27;35069;-62
2022/06/29 08:37:37;;;;;;;;;;;23.90;86.00;;;;;;5084885;28;38603;-62
2022/06/29 08:40:05;;;;;;;;;;;23.90;86.60;;;;;;5083553;27;39599;-62
2022/06/29 08:42:33;;;;;;;;;;;23.80;86.90;;;;;;5084321;28;37924;-62
2022/06/29 08:45:00;;;;;;;;;;;23.70;82.90;;;;;;5084667;27;36231;-62
2022/06/29 08:47:27;;;;;;;;;;;23.70;88.30;;;;;;5084585;27;37306;-62
2022/06/29 08:49:56;;;;;;;;;;;23.60;87.00;;;;;;5083582;27;39122;-61
2022/06/29 08:52:24;;;;;;;;;;;23.50;83.90;;;;;;5084289;27;37669;-62
2022/06/29 08:54:53;;;;;;;;;;;23.50;86.30;;;;;;5081878;27;37239;-62
2022/06/29 08:57:21;;;;;;;;;;;23.50;83.00;;;;;;5083597;27;40347;-62
2022/06/29 08:59:49;;;;;;;;;;;23.50;85.00;;;;;;5083055;28;38019;-62
2022/06/29 09:02:16;;;;;;;;;;;23.50;80.80;;;;;;5083875;27;36466;-61
2022/06/29 09:04:43;;;;;;;;;;;23.40;79.10;;;;;;5083186;27;35862;-62
2022/06/29 09:07:12;;;;;;;;;;;23.40;82.60;;;;;;5083540;27;37760;-61
2022/06/29 09:09:58;;;;;;;;;;;23.30;81.30;;;;;;5082771;27;38936;-62
2022/06/29 09:12:25;;;;;;;;;;;23.30;88.50;;;;;;5083980;27;38073;-62
2022/06/29 09:14:52;;;;;;;;;;;23.40;85.40;;;;;;5084003;27;36519;-62
2022/06/29 09:17:19;;;;;;;;;;;23.50;85.40;;;;;;5082360;27;36640;-62
2022/06/29 09:19:47;;;;;;;;;;;23.70;83.30;;;;;;5082827;27;38460;-62
2022/06/29 09:22:15;;;;;;;;;;;23.90;84.80;;;;;;5083300;28;38251;-62
2022/06/29 09:24:42;;;;;;;;;;;24.00;87.60;;;;;;5082164;27;36096;-62
2022/06/29 09:27:11;;;;;;;;;;;24.20;86.20;;;;;;5082459;27;36322;-62
2022/06/29 09:29:40;;;;;;;;;;;24.30;78.50;;;;;;5082836;27;38782;-62
2022/06/29 09:32:08;;;;;;;;;;;24.50;77.30;;;;;;5082088;27;38500;-62
2022/06/29 09:34:36;;;;;;;;;;;24.60;79.50;;;;;;5082153;27;35288;-62
2022/06/29 09:37:04;;;;;;;;;;;24.70;74.10;;;;;;5081301;27;37108;-62
2022/06/29 09:39:36;;;;;;;;;;;24.70;74.80;;;;;;5081965;27;38527;-62
2022/06/29 09:42:03;;;;;;;;;;;24.80;78.80;;;;;;5083512;28;37040;-62
2022/06/29 09:44:31;;;;;;;;;;;24.90;77.70;;;;;;5083761;27;36156;-62
2022/06/29 09:46:58;;;;;;;;;;;24.90;70.40;;;;;;5082208;27;36420;-62
2022/06/29 09:49:27;;;;;;;;;;;25.00;74.00;;;;;;5081967;27;37846;-62
2022/06/29 09:51:55;;;;;;;;;;;25.10;74.90;;;;;;5079455;27;38077;-63
2022/06/29 09:54:24;;;;;;;;;;;25.10;71.00;;;;;;5082399;27;35809;-62
2022/06/29 09:56:52;;;;;;;;;;;25.20;72.60;;;;;;5081891;27;37196;-62
2022/06/29 09:59:22;;;;;;;;;;;25.20;72.40;;;;;;5080847;27;37003;-62
2022/06/29 10:04:34;;;;;;;;;;;25.30;77.60;;;;;;5082073;28;37508;-63
2022/06/29 10:07:03;;;;;;;;;;;25.40;72.50;;;;;;5081593;28;37988;-62
2022/06/29 10:09:30;;;;;;;;;;;25.40;74.40;;;;;;5081460;27;38505;-63
2022/06/29 10:14:55;;;;;;;;;;;25.50;70.20;;;;;;5083212;28;37088;-62
2022/06/29 10:17:28;;;;;;;;;;;25.50;72.00;;;;;;5081087;27;38722;-62
2022/06/29 10:19:58;;;;;;;;;;;25.50;66.00;;;;;;5081433;27;41048;-62
2022/06/29 10:22:27;;;;;;;;;;;25.50;69.70;;;;;;5084586;28;38900;-62
2022/06/29 10:25:01;;;;;;;;;;;25.50;71.40;;;;;;5086046;27;36123;-63
2022/06/29 10:27:30;;;;;;;;;;;25.60;67.80;;;;;;5085798;27;40139;-63
2022/06/29 10:30:16;;;;;;;;;;;25.60;68.20;;;;;;5084824;27;38576;-62
2022/06/29 10:32:43;;;;;;;;;;;25.70;69.60;;;;;;5085769;27;38140;-62
2022/06/29 10:35:11;;;;;;;;;;;25.80;64.60;;;;;;5085888;27;36922;-62
2022/06/29 10:37:47;;;;;;;;;;;25.80;63.90;;;;;;5085599;27;37794;-62
2022/06/29 10:40:18;;;;;;;;;;;25.80;59.10;;;;;;5083816;28;37266;-62
2022/06/29 10:45:35;;;;;;;;;;;26.10;58.20;;;;;;5083093;28;38223;-63
2022/06/29 10:48:15;;;;;;;;;;;26.10;58.90;;;;;;5083525;27;37429;-62
2022/06/29 10:50:43;;;;;;;;;;;26.20;62.50;;;;;;5083292;27;38995;-62
2022/06/29 10:53:11;;;;;;;;;;;26.30;65.50;;;;;;5083292;27;37277;-62
2022/06/29 10:55:39;;;;;;;;;;;26.40;60.20;;;;;;5084211;27;35118;-63
2022/06/29 10:58:08;;;;;;;;;;;26.30;56.30;;;;;;5084469;27;37374;-63
2022/06/29 11:00:38;;;;;;;;;;;26.20;61.00;;;;;;5084695;27;36914;-63
2022/06/29 11:03:10;;;;;;;;;;;26.10;56.40;;;;;;5084688;27;39528;-62
2022/06/29 11:12:01;;;;;;;;;;;25.90;55.90;;;;;;5083988;27;36257;-63
2022/06/29 11:13:51;;;;;;;;;;;25.90;59.10;;;;;;5083558;28;40361;-62
2022/06/29 11:16:27;;;;;;;;;;;25.90;61.70;;;;;;5084031;28;36348;-62
2022/06/29 11:18:55;;;;;;;;;;;26.10;61.80;;;;;;5083594;27;37702;-62
2022/06/29 11:21:23;;;;;;;;;;;26.20;61.70;;;;;;5084409;27;38481;-62
2022/06/29 11:23:55;;;;;;;;;;;26.30;57.80;;;;;;5083148;27;38125;-62
2022/06/29 11:26:23;;;;;;;;;;;26.40;59.00;;;;;;5086227;27;36470;-61
2022/06/29 11:28:50;;;;;;;;;;;26.40;59.50;;;;;;5084439;27;37633;-62
2022/06/29 11:31:18;;;;;;;;;;;26.50;56.10;;;;;;5084436;27;40706;-62
2022/06/29 11:33:47;;;;;;;;;;;26.50;56.80;;;;;;5081898;27;38126;-62
2022/06/29 11:36:15;;;;;;;;;;;26.50;55.20;;;;;;5084101;27;36611;-63
2022/06/29 11:38:43;;;;;;;;;;;26.50;54.80;;;;;;5084178;27;40000;-62
2022/06/29 11:41:11;;;;;;;;;;;26.50;56.50;;;;;;5084054;27;38423;-62
2022/06/29 11:43:38;;;;;;;;;;;26.60;57.90;;;;;;5083780;27;37845;-63
2022/06/29 11:46:05;;;;;;;;;;;26.70;58.60;;;;;;5084103;28;34956;-62
2022/06/29 11:49:33;;;;;;;;;;;26.80;57.20;;;;;;5083281;27;38403;-63
2022/06/29 11:51:21;;;;;;;;;;;26.80;55.80;;;;;;5082598;27;39379;-62
2022/06/29 11:53:53;;;;;;;;;;;26.70;58.80;;;;;;5080596;27;38088;-63
2022/06/29 11:56:23;;;;;;;;;;;26.70;54.30;;;;;;5084093;27;35121;-62
2022/06/29 11:58:51;;;;;;;;;;;26.60;49.90;;;;;;5080857;27;37848;-62
2022/06/29 12:01:19;;;;;;;;;;;26.60;54.00;;;;;;5082839;27;39009;-62
2022/06/29 12:03:51;;;;;;;;;;;26.60;55.30;;;;;;5081525;27;37226;-62
2022/06/29 12:06:18;;;;;;;;;;;26.60;54.10;;;;;;5083441;28;36547;-63
2022/06/29 12:08:45;;;;;;;;;;;26.60;53.20;;;;;;5081438;27;37746;-62
2022/06/29 12:11:12;;;;;;;;;;;26.60;55.00;;;;;;5083170;27;38800;-63
2022/06/29 12:13:39;;;;;;;;;;;26.60;52.90;;;;;;5082758;27;37144;-62
2022/06/29 12:16:07;;;;;;;;;;;26.50;50.80;;;;;;5083857;27;36806;-62
2022/06/29 12:18:34;;;;;;;;;;;26.40;52.70;;;;;;5082469;27;41317;-62
2022/06/29 12:21:02;;;;;;;;;;;26.30;51.20;;;;;;5082490;27;39276;-63
2022/06/29 12:23:31;;;;;;;;;;;26.10;51.30;;;;;;5083519;27;38422;-62
2022/06/29 12:25:58;;;;;;;;;;;26.00;51.00;;;;;;5081601;27;36901;-62
2022/06/29 12:28:26;;;;;;;;;;;25.80;51.80;;;;;;5082689;27;37547;-62
2022/06/29 12:30:53;;;;;;;;;;;25.80;54.00;;;;;;5082934;27;37779;-63
2022/06/29 12:33:20;;;;;;;;;;;25.70;54.30;;;;;;5082488;27;37696;-62
2022/06/29 12:35:47;;;;;;;;;;;25.80;56.80;;;;;;5082379;27;35142;-63
2022/06/29 12:38:16;;;;;;;;;;;25.80;58.30;;;;;;5083460;27;38631;-62
2022/06/29 12:40:43;;;;;;;;;;;25.90;58.50;;;;;;5081003;28;38435;-63
2022/06/29 12:43:10;;;;;;;;;;;25.90;57.10;;;;;;5081483;27;38051;-62
2022/06/29 12:45:37;;;;;;;;;;;26.00;59.30;;;;;;5081936;27;36132;-63
2022/06/29 12:48:04;;;;;;;;;;;26.00;58.90;;;;;;5083044;27;40321;-63
2022/06/29 12:50:31;;;;;;;;;;;26.00;58.60;;;;;;5081884;27;39171;-62
2022/06/29 12:52:58;;;;;;;;;;;26.00;57.70;;;;;;5083108;27;37566;-62
2022/06/29 12:55:27;;;;;;;;;;;25.90;55.10;;;;;;5082046;27;37421;-62
2022/06/29 12:57:54;;;;;;;;;;;25.90;59.60;;;;;;5082968;27;39686;-63
2022/06/29 13:00:21;;;;;;;;;;;25.90;57.40;;;;;;5080937;28;38256;-62
2022/06/29 13:02:48;;;;;;;;;;;25.90;58.40;;;;;;5082078;27;37434;-62
2022/06/29 13:05:15;;;;;;;;;;;25.90;59.20;;;;;;5081331;27;36890;-62
2022/06/29 13:07:42;;;;;;;;;;;25.90;61.10;;;;;;5081592;27;37345;-63
2022/06/29 13:10:10;;;;;;;;;;;25.90;61.90;;;;;;5082615;27;38291;-62
2022/06/29 13:12:38;;;;;;;;;;;25.90;63.10;;;;;;5082773;27;36347;-62
2022/06/29 13:15:05;;;;;;;;;;;25.90;63.20;;;;;;5082615;27;35216;-62
2022/06/29 13:17:33;;;;;;;;;;;25.90;63.60;;;;;;5081672;27;38017;-63
2022/06/29 13:20:01;;;;;;;;;;;26.00;63.10;;;;;;5080580;27;38584;-62
2022/06/29 13:22:28;;;;;;;;;;;26.00;62.20;;;;;;5082074;27;38364;-63
2022/06/29 13:24:55;;;;;;;;;;;25.90;65.00;;;;;;5083034;27;36699;-62
2022/06/29 13:27:22;;;;;;;;;;;25.90;63.80;;;;;;5082549;28;37621;-62
2022/06/29 13:29:50;;;;;;;;;;;25.90;64.10;;;;;;5082531;27;39785;-63
2022/06/29 13:32:17;;;;;;;;;;;25.90;63.00;;;;;;5078325;27;37882;-62
2022/06/29 13:34:44;;;;;;;;;;;25.90;64.70;;;;;;5081975;27;36466;-62
2022/06/29 13:37:11;;;;;;;;;;;25.90;63.90;;;;;;5081246;27;37272;-62
2022/06/29 13:39:38;;;;;;;;;;;25.90;63.60;;;;;;5083191;27;39773;-62
2022/06/29 13:42:07;;;;;;;;;;;25.90;64.20;;;;;;5082793;27;37289;-62
2022/06/29 13:44:34;;;;;;;;;;;25.90;64.60;;;;;;5083108;27;37358;-62
2022/06/29 13:47:03;;;;;;;;;;;25.80;66.80;;;;;;5081248;27;39398;-63
2022/06/29 13:49:30;;;;;;;;;;;25.80;65.50;;;;;;5081373;27;37835;-62
2022/06/29 13:51:57;;;;;;;;;;;25.80;65.10;;;;;;5080896;27;39305;-63
2022/06/29 13:54:24;;;;;;;;;;;25.70;67.80;;;;;;5081566;27;37008;-62
2022/06/29 13:56:51;;;;;;;;;;;25.70;69.50;;;;;;5084895;27;38675;-63
2022/06/29 13:59:18;;;;;;;;;;;25.70;66.70;;;;;;5083339;27;38522;-62
2022/06/29 14:01:45;;;;;;;;;;;25.70;65.20;;;;;;5085632;27;38156;-62
2022/06/29 14:04:14;;;;;;;;;;;25.70;65.20;;;;;;5086591;27;36054;-62
2022/06/29 14:06:41;;;;;;;;;;;25.70;65.30;;;;;;5086632;27;35108;-62
2022/06/29 14:09:08;;;;;;;;;;;25.60;63.30;;;;;;5086459;27;38655;-62
2022/06/29 14:11:36;;;;;;;;;;;25.60;63.50;;;;;;5087508;28;37636;-62
2022/06/29 14:14:03;;;;;;;;;;;25.50;66.90;;;;;;5085986;27;36367;-62
2022/06/29 14:16:31;;;;;;;;;;;25.50;67.30;;;;;;5086975;27;39604;-62
2022/06/29 14:18:58;;;;;;;;;;;25.50;71.20;;;;;;5085474;27;38151;-62
2022/06/29 14:21:26;;;;;;;;;;;25.40;73.70;;;;;;5086403;27;38169;-62
2022/06/29 14:23:53;;;;;;;;;;;25.50;76.00;;;;;;5085267;27;37982;-62
2022/06/29 14:26:21;;;;;;;;;;;25.40;74.80;;;;;;5085845;27;36536;-63
2022/06/29 14:28:48;;;;;;;;;;;25.40;76.20;;;;;;5085341;27;40283;-62
2022/06/29 14:31:15;;;;;;;;;;;25.30;77.80;;;;;;5085781;27;37485;-62
2022/06/29 14:33:42;;;;;;;;;;;25.40;80.30;;;;;;5086237;28;35755;-62
2022/06/29 14:36:09;;;;;;;;;;;25.30;79.50;;;;;;5084965;27;37934;-62
2022/06/29 14:38:38;;;;;;;;;;;25.30;79.40;;;;;;5085697;27;38285;-62